Time;durP1;ratioP1;P1;durP2;ratioP2;P2;SDS_P1;SDS_P2;PMS_P1;PMS_P2;Temp;Humidity;BMP_temperature;BMP_pressure;BME280_temperature;BME280_humidity;BME280_pressure;Samples;Min_cycle;Max_cycle;Signal;HPM_P1;HPM_P2
2021/09/19 00:02:15;;;;;;;7.13;6.43;;;;;;;12.42;90.18;100161.88;10458717;28;20056;-70
2021/09/19 00:07:17;;;;;;;6.72;6.13;;;;;;;12.40;89.33;100153.19;10458332;28;20124;-70
2021/09/19 00:12:19;;;;;;;6.32;5.68;;;;;;;12.30;88.48;100159.69;10457864;28;20178;-71
2021/09/19 00:17:20;;;;;;;6.07;5.13;;;;;;;12.31;87.22;100169.34;10458684;28;20107;-71
2021/09/19 00:22:22;;;;;;;5.55;5.13;;;;;;;12.32;85.51;100166.63;10457706;28;20498;-71
2021/09/19 00:27:23;;;;;;;5.50;4.38;;;;;;;12.00;85.76;100166.94;10457776;28;20037;-71
2021/09/19 00:32:25;;;;;;;5.28;4.78;;;;;;;12.09;86.63;100164.00;10457505;28;20053;-71
2021/09/19 00:37:26;;;;;;;6.22;5.20;;;;;;;12.00;87.94;100164.31;10439530;28;20037;-71
2021/09/19 00:42:28;;;;;;;4.97;4.47;;;;;;;12.18;85.75;100168.91;10457187;28;20417;-71
2021/09/19 00:47:30;;;;;;;5.20;4.70;;;;;;;12.10;87.24;100166.56;10457130;28;20046;-71
2021/09/19 00:52:32;;;;;;;6.32;5.82;;;;;;;11.96;88.00;100163.56;10456633;28;20049;-71
2021/09/19 00:57:39;;;;;;;7.95;5.47;;;;;;;11.95;88.80;100160.97;10456579;28;20079;-71
2021/09/19 01:02:41;;;;;;;5.93;5.38;;;;;;;11.86;89.17;100162.13;10457006;28;20052;-71
2021/09/19 01:07:44;;;;;;;5.95;5.38;;;;;;;11.86;89.45;100147.22;10426657;22;20102;-73
2021/09/19 01:12:49;;;;;;;4.97;4.68;;;;;;;11.89;89.11;100153.28;10360721;28;20141;-73
2021/09/19 01:17:51;;;;;;;5.63;5.13;;;;;;;11.97;88.19;100160.00;10377660;28;20096;-72
2021/09/19 01:23:04;;;;;;;5.70;5.20;;;;;;;11.96;88.13;100158.28;10359572;28;20141;-72
2021/09/19 01:28:07;;;;;;;10.10;5.60;;;;;;;11.94;88.60;100160.09;10377364;28;20175;-72
2021/09/19 01:33:09;;;;;;;5.07;4.65;;;;;;;11.82;89.21;100160.50;10360456;28;20092;-72
2021/09/19 01:38:10;;;;;;;8.02;4.95;;;;;;;12.01;87.34;100164.25;10377335;28;20064;-74
2021/09/19 01:43:12;;;;;;;5.22;4.82;;;;;;;11.98;84.22;100169.63;10376893;28;20041;-74
2021/09/19 01:48:13;;;;;;;5.60;4.88;;;;;;;11.91;83.98;100159.34;10377423;28;20046;-74
2021/09/19 01:53:15;;;;;;;4.57;4.18;;;;;;;11.89;84.23;100146.22;10360376;28;20125;-75
2021/09/19 01:58:16;;;;;;;6.60;4.47;;;;;;;11.86;83.74;100162.13;10377068;28;20423;-75
2021/09/19 02:03:18;;;;;;;5.18;4.68;;;;;;;11.75;85.42;100159.00;10376947;28;20038;-74
2021/09/19 02:08:20;;;;;;;4.82;4.43;;;;;;;11.71;85.11;100157.38;10359244;28;20084;-73
2021/09/19 02:13:22;;;;;;;5.43;4.93;;;;;;;11.75;85.44;100161.63;10359117;28;20053;-73
2021/09/19 02:18:23;;;;;;;5.82;5.32;;;;;;;11.62;86.02;100154.16;10377053;28;20042;-74
2021/09/19 02:23:26;;;;;;;6.40;5.32;;;;;;;11.73;85.43;100140.63;10376270;28;20026;-74
2021/09/19 02:28:28;;;;;;;5.53;4.78;;;;;;;11.75;84.86;100133.53;10376651;28;20100;-74
2021/09/19 02:33:30;;;;;;;5.20;4.70;;;;;;;11.66;85.43;100139.13;10378819;28;20050;-73
2021/09/19 02:38:31;;;;;;;6.05;5.03;;;;;;;11.89;83.94;100140.97;10383595;28;20065;-73
2021/09/19 02:43:33;;;;;;;4.25;3.85;;;;;;;11.97;80.57;100135.44;10382528;28;20069;-73
2021/09/19 02:48:35;;;;;;;5.18;4.07;;;;;;;11.65;80.20;100140.03;10383347;28;20436;-73
2021/09/19 02:53:36;;;;;;;5.40;4.20;;;;;;;11.40;80.51;100142.63;10382158;28;20096;-74
2021/09/19 02:58:38;;;;;;;4.55;4.25;;;;;;;11.39;81.22;100143.53;10382508;28;20050;-73
2021/09/19 03:03:40;;;;;;;4.80;4.40;;;;;;;11.42;83.20;100147.81;10381399;28;20483;-73
2021/09/19 03:08:41;;;;;;;4.35;3.95;;;;;;;11.42;81.74;100139.94;10381481;28;20050;-73
2021/09/19 03:13:43;;;;;;;3.45;3.20;;;;;;;11.47;78.38;100143.28;10382141;28;20107;-73
2021/09/19 03:18:44;;;;;;;3.90;2.80;;;;;;;11.51;77.18;100150.16;10381803;28;20049;-74
2021/09/19 03:23:46;;;;;;;5.47;2.95;;;;;;;11.46;80.00;100141.56;10381694;28;20138;-73
2021/09/19 03:28:47;;;;;;;4.45;3.35;;;;;;;11.28;80.34;100137.75;10381191;28;20049;-73
2021/09/19 03:33:49;;;;;;;2.83;2.63;;;;;;;11.20;80.78;100143.31;10380813;28;20048;-73
2021/09/19 03:38:50;;;;;;;4.03;3.72;;;;;;;11.29;80.48;100134.25;10380224;28;20054;-73
2021/09/19 03:43:53;;;;;;;5.70;3.45;;;;;;;11.31;79.40;100133.25;10379883;28;20046;-73
2021/09/19 03:48:55;;;;;;;3.63;3.33;;;;;;;11.16;83.53;100152.19;10380138;28;20446;-73
2021/09/19 03:53:57;;;;;;;4.45;3.13;;;;;;;11.23;81.41;100148.44;10379649;28;20183;-73
2021/09/19 03:58:58;;;;;;;4.57;3.50;;;;;;;11.28;82.02;100149.16;10378983;28;20070;-73
2021/09/19 04:04:00;;;;;;;4.70;4.25;;;;;;;11.22;82.64;100146.72;10361379;28;20038;-73
2021/09/19 04:09:02;;;;;;;4.25;3.83;;;;;;;11.39;79.95;100142.69;10379151;28;20383;-74
2021/09/19 04:14:04;;;;;;;3.83;3.47;;;;;;;11.14;82.06;100147.88;10360744;28;20046;-72
2021/09/19 04:19:08;;;;;;;5.53;4.15;;;;;;;11.01;81.50;100144.78;10378541;28;20550;-72
2021/09/19 04:24:10;;;;;;;6.47;3.88;;;;;;;11.07;80.42;100152.50;10379475;28;20042;-73
2021/09/19 04:29:11;;;;;;;4.75;3.75;;;;;;;11.07;81.16;100153.34;10378446;28;20061;-72
2021/09/19 04:34:13;;;;;;;4.53;3.72;;;;;;;11.04;80.17;100166.59;10378977;28;20053;-73
2021/09/19 04:39:14;;;;;;;8.90;4.40;;;;;;;11.06;80.55;100164.75;10378256;28;20137;-74
2021/09/19 04:44:16;;;;;;;5.35;4.00;;;;;;;11.08;80.54;100164.72;10379110;28;20088;-74
2021/09/19 04:49:18;;;;;;;5.20;4.00;;;;;;;10.98;80.99;100171.16;10361620;28;20119;-74
2021/09/19 04:54:19;;;;;;;4.97;3.55;;;;;;;10.93;80.71;100168.69;10360341;28;20509;-74
2021/09/19 04:59:21;;;;;;;4.28;3.88;;;;;;;10.82;82.54;100161.13;10360163;28;20053;-73
2021/09/19 05:04:22;;;;;;;4.55;3.38;;;;;;;10.77;82.03;100160.41;10378617;28;20128;-73
2021/09/19 05:09:24;;;;;;;3.65;3.25;;;;;;;11.17;78.89;100156.53;10360921;28;20119;-74
2021/09/19 05:14:26;;;;;;;3.88;3.58;;;;;;;11.15;79.44;100158.34;10377789;28;20042;-74
2021/09/19 05:19:27;;;;;;;4.15;3.75;;;;;;;11.01;80.26;100164.03;10379434;28;20065;-74
2021/09/19 05:24:29;;;;;;;4.05;3.65;;;;;;;10.99;80.81;100165.88;10361119;28;20065;-74
2021/09/19 05:29:31;;;;;;;4.53;3.60;;;;;;;10.82;81.54;100166.41;10361965;28;20049;-74
2021/09/19 05:34:33;;;;;;;3.78;3.47;;;;;;;11.02;81.51;100171.06;10362248;28;20388;-74
2021/09/19 05:39:34;;;;;;;5.53;3.60;;;;;;;10.76;80.36;100171.00;10379722;28;20474;-74
2021/09/19 05:44:36;;;;;;;5.03;3.47;;;;;;;10.85;81.09;100166.31;10379374;28;20410;-73
2021/09/19 05:49:38;;;;;;;4.45;4.05;;;;;;;11.11;78.95;100170.75;10362664;28;20549;-74
2021/09/19 05:54:40;;;;;;;4.22;3.17;;;;;;;11.12;80.36;100176.88;10361894;28;20092;-73
2021/09/19 05:59:42;;;;;;;3.78;3.45;;;;;;;10.99;80.18;100175.53;10360076;28;20068;-74
2021/09/19 06:04:43;;;;;;;4.38;3.45;;;;;;;10.86;80.60;100167.16;10360148;28;20045;-74
2021/09/19 06:09:45;;;;;;;4.07;3.78;;;;;;;10.82;80.65;100169.03;10384280;28;20113;-74
2021/09/19 06:14:47;;;;;;;4.75;3.40;;;;;;;10.81;81.29;100171.72;10386071;28;20045;-74
2021/09/19 06:19:49;;;;;;;6.00;3.65;;;;;;;11.05;78.50;100173.56;10386107;28;20104;-74
2021/09/19 06:24:50;;;;;;;4.40;4.00;;;;;;;11.09;78.69;100166.44;10368556;28;20520;-74
2021/09/19 06:29:52;;;;;;;3.58;3.15;;;;;;;11.29;75.94;100165.81;10386054;28;20396;-75
2021/09/19 06:34:55;;;;;;;5.07;3.72;;;;;;;11.23;77.70;100173.91;10369656;28;20100;-74
2021/09/19 06:39:56;;;;;;;4.05;3.47;;;;;;;11.45;75.92;100164.38;10369082;28;20057;-74
2021/09/19 06:44:58;;;;;;;3.50;3.20;;;;;;;11.37;76.50;100166.41;10385128;28;20045;-75
2021/09/19 06:49:59;;;;;;;4.55;4.10;;;;;;;11.55;73.62;100165.81;10385167;28;20053;-74
2021/09/19 06:55:01;;;;;;;5.45;3.70;;;;;;;11.50;75.93;100166.88;10384871;28;20046;-73
2021/09/19 07:00:04;;;;;;;4.97;4.05;;;;;;;11.39;75.63;100169.00;10386980;28;20037;-74
2021/09/19 07:05:06;;;;;;;4.35;3.95;;;;;;;11.60;74.38;100166.53;10385877;28;20057;-74
2021/09/19 07:10:08;;;;;;;4.35;4.00;;;;;;;11.48;74.91;100164.28;10350634;28;20419;-72
2021/09/19 07:15:10;;;;;;;4.63;4.32;;;;;;;11.67;68.99;100158.41;10383644;28;20061;-74
2021/09/19 07:20:12;;;;;;;5.78;5.13;;;;;;;11.57;68.47;100158.72;10382213;28;20049;-73
2021/09/19 07:25:15;;;;;;;6.53;6.13;;;;;;;11.36;64.93;100165.53;10364894;28;20411;-72
2021/09/19 07:30:17;;;;;;;7.75;7.10;;;;;;;11.32;66.77;100177.09;10366260;28;20042;-71
2021/09/19 07:35:18;;;;;;;7.72;7.30;;;;;;;11.42;65.24;100177.66;10363715;28;20042;-71
2021/09/19 07:40:21;;;;;;;6.75;6.32;;;;;;;11.52;63.15;100189.59;10382754;28;20424;-72
2021/09/19 07:45:23;;;;;;;5.70;5.30;;;;;;;11.59;62.78;100193.72;10381014;28;20050;-73
2021/09/19 07:50:24;;;;;;;8.43;5.65;;;;;;;11.47;63.59;100194.16;10369433;28;20101;-72
2021/09/19 07:55:28;;;;;;;4.70;4.40;;;;;;;11.54;63.04;100190.41;10378937;28;20056;-71
2021/09/19 08:00:29;;;;;;;5.28;4.88;;;;;;;11.58;62.06;100201.69;10379731;28;20125;-72
2021/09/19 08:05:31;;;;;;;4.75;4.45;;;;;;;11.49;62.02;100204.63;10380410;28;20100;-72
2021/09/19 08:10:33;;;;;;;6.05;5.65;;;;;;;11.49;62.05;100205.50;10379434;28;20141;-72
2021/09/19 08:15:34;;;;;;;9.73;6.28;;;;;;;11.70;63.04;100203.06;10363219;28;20073;-71
2021/09/19 08:20:36;;;;;;;5.50;5.00;;;;;;;11.73;61.64;100211.75;10380376;28;20049;-71
2021/09/19 08:25:38;;;;;;;5.65;5.25;;;;;;;11.75;61.83;100217.78;10362532;28;20046;-72
2021/09/19 08:30:40;;;;;;;4.45;4.15;;;;;;;11.70;59.38;100218.88;10379298;28;20462;-74
2021/09/19 08:35:42;;;;;;;5.07;4.68;;;;;;;11.74;61.08;100216.09;10372507;28;20042;-72
2021/09/19 08:40:44;;;;;;;4.95;4.38;;;;;;;11.71;59.85;100228.47;10361058;28;20104;-72
2021/09/19 08:45:48;;;;;;;4.40;4.10;;;;;;;11.97;58.38;100225.88;10408474;28;20044;-71
2021/09/19 08:50:53;;;;;;;3.60;3.30;;;;;;;11.93;59.48;100228.66;10335706;28;20042;-72
2021/09/19 08:55:55;;;;;;;3.65;3.35;;;;;;;11.98;59.32;100230.22;10348613;28;20050;-72
2021/09/19 09:00:59;;;;;;;3.95;3.58;;;;;;;12.47;57.18;100227.63;10320477;28;20113;-71
2021/09/19 09:06:06;;;;;;;3.17;2.97;;;;;;;12.37;57.31;100225.31;10362661;28;20101;-72
2021/09/19 09:11:09;;;;;;;3.85;3.55;;;;;;;12.31;57.84;100225.53;10377719;28;20042;-72
2021/09/19 09:16:17;;;;;;;2.80;2.60;;;;;;;12.30;56.40;100233.50;10377998;28;20547;-72
2021/09/19 09:21:28;;;;;;;2.97;2.78;;;;;;;12.24;57.79;100234.56;10367452;28;20043;-72
2021/09/19 09:26:37;;;;;;;3.60;3.40;;;;;;;12.18;59.55;100236.59;10319959;28;20558;-72
2021/09/19 09:31:42;;;;;;;3.80;2.90;;;;;;;12.41;58.86;100222.56;10318955;28;20057;-72
2021/09/19 09:36:57;;;;;;;3.70;3.40;;;;;;;12.60;57.72;100219.19;10338330;28;20053;-72
2021/09/19 09:42:16;;;;;;;3.95;3.47;;;;;;;12.58;57.01;100222.81;10371447;28;20046;-74
2021/09/19 09:47:25;;;;;;;3.38;3.08;;;;;;;12.75;57.16;100211.63;10366288;28;20100;-72
2021/09/19 09:52:34;;;;;;;2.70;2.47;;;;;;;12.97;53.29;100204.63;10322014;28;20057;-73
2021/09/19 09:57:36;;;;;;;2.63;2.42;;;;;;;12.93;53.49;100195.09;10338677;28;20097;-72
2021/09/19 10:02:48;;;;;;;3.03;2.40;;;;;;;13.11;55.69;100204.09;10337746;28;20121;-72
2021/09/19 10:07:50;;;;;;;3.10;2.90;;;;;;;13.03;56.44;100195.59;10303785;28;20416;-72
2021/09/19 10:12:53;;;;;;;2.78;2.15;;;;;;;12.94;54.21;100206.53;10337720;28;20053;-73
2021/09/19 10:17:55;;;;;;;3.05;2.40;;;;;;;13.24;52.48;100199.22;10318826;28;20488;-73
2021/09/19 10:23:23;;;;;;;2.65;2.33;;;;;;;13.00;54.40;100203.63;10303170;28;20050;-73
2021/09/19 10:28:33;;;;;;;3.25;2.30;;;;;;;13.46;55.54;100208.00;10304545;28;20051;-72
2021/09/19 10:33:44;;;;;;;3.45;2.50;;;;;;;13.79;51.43;100205.72;10337569;28;20054;-73
2021/09/19 10:38:46;;;;;;;4.50;2.42;;;;;;;13.49;53.13;100212.25;10336239;28;20065;-74
2021/09/19 10:43:55;;;;;;;2.90;2.70;;;;;;;13.25;55.38;100200.94;10335738;28;20519;-72
2021/09/19 10:49:17;;;;;;;3.33;2.35;;;;;;;13.53;53.20;100203.28;10336994;28;20043;-73
2021/09/19 10:54:51;;;;;;;2.53;2.20;;;;;;;13.44;53.87;100196.59;10340393;28;20104;-74
2021/09/19 11:00:08;;;;;;;2.40;2.20;;;;;;;13.58;51.06;100185.47;10344303;28;20054;-73
2021/09/19 11:05:28;;;;;;;2.92;2.63;;;;;;;13.53;52.14;100183.03;10347256;28;20117;-74
2021/09/19 11:10:30;;;;;;;2.40;2.20;;;;;;;13.69;51.43;100180.63;10343886;28;20042;-74
2021/09/19 11:15:32;;;;;;;2.65;2.17;;;;;;;13.95;51.19;100181.28;10343985;28;20191;-74
2021/09/19 11:20:34;;;;;;;2.00;1.80;;;;;;;14.07;52.92;100178.94;10342989;28;20133;-74
2021/09/19 11:25:36;;;;;;;2.03;1.90;;;;;;;14.17;52.00;100178.56;10326292;28;20046;-73
2021/09/19 11:30:38;;;;;;;5.35;2.42;;;;;;;14.54;51.65;100167.22;10342215;28;20054;-75
2021/09/19 11:35:40;;;;;;;3.50;2.50;;;;;;;14.20;51.67;100167.84;10344715;28;20050;-74
2021/09/19 11:40:41;;;;;;;1.90;1.80;;;;;;;14.08;51.78;100175.41;10344034;28;20128;-74
2021/09/19 11:45:44;;;;;;;2.30;2.10;;;;;;;13.72;52.97;100171.69;10324659;28;20061;-72
2021/09/19 11:50:48;;;;;;;2.75;2.55;;;;;;;13.63;53.72;100176.47;10341529;28;20046;-74
2021/09/19 11:55:50;;;;;;;2.85;2.03;;;;;;;13.38;54.40;100173.09;10323818;28;20050;-73
2021/09/19 12:00:54;;;;;;;2.45;1.90;;;;;;;13.46;53.61;100173.66;10344189;28;20089;-74
2021/09/19 12:06:01;;;;;;;2.13;1.95;;;;;;;13.59;54.29;100171.34;10340122;28;20510;-74
2021/09/19 12:11:04;;;;;;;2.30;2.10;;;;;;;13.39;56.72;100164.25;10341132;28;20141;-74
2021/09/19 12:16:12;;;;;;;1.77;1.67;;;;;;;13.59;54.67;100159.00;10325453;28;20072;-73
2021/09/19 12:21:20;;;;;;;3.47;1.77;;;;;;;13.75;54.81;100159.22;10323820;28;20050;-74
2021/09/19 12:26:29;;;;;;;3.08;2.20;;;;;;;13.83;54.90;100167.66;10324502;28;20473;-75
2021/09/19 12:31:41;;;;;;;2.53;2.33;;;;;;;14.02;52.47;100159.78;10325552;28;20105;-74
2021/09/19 12:36:50;;;;;;;2.53;2.33;;;;;;;13.84;52.77;100163.25;10343783;28;20046;-74
2021/09/19 12:41:59;;;;;;;1.92;1.83;;;;;;;13.83;54.12;100158.88;10327410;28;20065;-74
2021/09/19 12:47:07;;;;;;;2.03;1.85;;;;;;;13.77;53.77;100156.53;10342295;28;20039;-73
2021/09/19 12:52:17;;;;;;;3.03;2.10;;;;;;;13.87;55.04;100145.47;10338609;28;20128;-74
2021/09/19 12:57:22;;;;;;;2.67;2.03;;;;;;;14.02;53.27;100149.22;10340019;28;20042;-74
2021/09/19 13:02:25;;;;;;;2.13;1.90;;;;;;;13.79;53.52;100154.66;10325720;28;20070;-74
2021/09/19 13:07:27;;;;;;;1.70;1.60;;;;;;;14.21;52.52;100151.03;10362397;23;20042;-69
2021/09/19 13:12:29;;;;;;;1.70;1.60;;;;;;;14.21;52.87;100146.63;10374599;28;20487;-69
2021/09/19 13:17:30;;;;;;;2.35;2.13;;;;;;;14.30;53.13;100148.00;10369409;28;20044;-69
2021/09/19 13:22:33;;;;;;;2.30;2.10;;;;;;;14.27;53.33;100145.50;10360756;28;20042;-69
2021/09/19 13:27:35;;;;;;;1.90;1.80;;;;;;;14.01;54.64;100134.28;10351653;28;20042;-70
2021/09/19 13:32:37;;;;;;;2.03;1.83;;;;;;;14.21;52.28;100132.53;10359349;28;20073;-70
2021/09/19 13:37:41;;;;;;;2.30;1.88;;;;;;;14.36;53.17;100123.91;10374475;28;20483;-69
2021/09/19 13:42:42;;;;;;;4.32;2.40;;;;;;;14.04;53.57;100128.88;10336904;28;20126;-69
2021/09/19 13:47:44;;;;;;;2.33;2.13;;;;;;;14.24;53.39;100120.03;10333277;28;20042;-69
2021/09/19 13:52:46;;;;;;;2.22;2.03;;;;;;;14.24;51.96;100124.47;10334002;28;20049;-69
2021/09/19 13:57:48;;;;;;;2.95;2.47;;;;;;;14.27;53.15;100125.19;10368017;28;20085;-70
2021/09/19 14:02:49;;;;;;;2.67;2.47;;;;;;;14.16;53.38;100126.59;10373761;28;20128;-69
2021/09/19 14:07:51;;;;;;;3.85;2.63;;;;;;;14.02;53.21;100119.28;10373674;28;20115;-70
2021/09/19 14:12:53;;;;;;;2.72;2.47;;;;;;;14.10;54.09;100122.44;10371441;28;20423;-70
2021/09/19 14:17:55;;;;;;;2.80;2.50;;;;;;;14.22;53.66;100123.69;10372955;28;20049;-69
2021/09/19 14:22:58;;;;;;;3.53;2.50;;;;;;;14.17;53.77;100129.19;10372353;28;20049;-69
2021/09/19 14:28:01;;;;;;;2.70;2.30;;;;;;;14.21;53.68;100136.06;10373821;28;20125;-69
2021/09/19 14:33:03;;;;;;;2.45;2.25;;;;;;;14.37;52.93;100130.91;10380027;28;20046;-69
2021/09/19 14:38:04;;;;;;;2.67;2.20;;;;;;;14.39;52.77;100123.78;10380006;28;20039;-71
2021/09/19 14:43:06;;;;;;;5.30;2.72;;;;;;;14.25;53.02;100123.53;10380106;28;20107;-72
2021/09/19 14:48:08;;;;;;;2.38;2.17;;;;;;;14.08;52.50;100122.53;10362590;28;20084;-71
2021/09/19 14:53:10;;;;;;;2.50;2.30;;;;;;;13.97;52.65;100116.00;10379723;28;20050;-69
2021/09/19 14:58:11;;;;;;;3.15;2.85;;;;;;;14.12;52.37;100125.88;10379978;28;20446;-69
2021/09/19 15:03:13;;;;;;;3.40;2.33;;;;;;;14.05;51.83;100120.03;10378048;28;20050;-69
2021/09/19 15:08:16;;;;;;;2.78;2.05;;;;;;;14.01;53.09;100120.22;10378674;28;20042;-69
2021/09/19 15:13:18;;;;;;;2.60;2.33;;;;;;;14.07;52.64;100118.16;10361698;28;20046;-69
2021/09/19 15:18:19;;;;;;;2.88;2.38;;;;;;;14.01;53.38;100118.44;10378812;28;20046;-69
2021/09/19 15:23:21;;;;;;;2.60;2.40;;;;;;;13.84;53.75;100116.53;10379389;28;20053;-69
2021/09/19 15:28:22;;;;;;;2.55;2.35;;;;;;;13.73;54.01;100110.03;10378391;28;20079;-69
2021/09/19 15:33:24;;;;;;;2.58;2.38;;;;;;;13.86;53.71;100104.13;10377878;28;20049;-69
2021/09/19 15:38:25;;;;;;;2.70;2.50;;;;;;;13.81;54.94;100108.75;10377982;28;20392;-69
2021/09/19 15:43:30;;;;;;;3.05;2.85;;;;;;;13.82;54.72;100106.97;10377940;28;20050;-69
2021/09/19 15:48:34;;;;;;;2.72;2.53;;;;;;;13.73;54.83;100107.38;10377886;28;20357;-69
2021/09/19 15:53:38;;;;;;;2.97;2.50;;;;;;;13.69;55.16;100111.06;10377415;28;20511;-69
2021/09/19 15:58:40;;;;;;;3.20;3.00;;;;;;;13.69;55.12;100119.84;10377429;28;20491;-69
2021/09/19 16:03:42;;;;;;;3.80;2.63;;;;;;;13.49;56.45;100123.34;10377206;28;20050;-68
2021/09/19 16:08:44;;;;;;;2.55;2.35;;;;;;;13.25;57.31;100129.66;10376959;28;20132;-69
2021/09/19 16:13:47;;;;;;;2.65;2.45;;;;;;;13.37;57.89;100126.50;10377234;28;20093;-69
2021/09/19 16:18:49;;;;;;;3.95;3.30;;;;;;;13.41;57.35;100130.72;10358834;28;20052;-69
2021/09/19 16:23:50;;;;;;;2.95;2.75;;;;;;;13.44;57.70;100129.75;10376601;28;20542;-69
2021/09/19 16:28:52;;;;;;;2.85;2.65;;;;;;;13.31;58.01;100129.38;10359024;28;20096;-69
2021/09/19 16:33:53;;;;;;;2.70;2.28;;;;;;;13.29;58.43;100131.25;10375556;28;20459;-70
2021/09/19 16:38:55;;;;;;;2.47;2.28;;;;;;;13.41;57.71;100138.63;10375581;28;20467;-70
2021/09/19 16:43:57;;;;;;;2.90;2.42;;;;;;;13.09;58.15;100135.50;10375365;28;20065;-69
2021/09/19 16:48:58;;;;;;;2.35;2.15;;;;;;;13.29;57.30;100131.25;10375499;28;20524;-69
2021/09/19 16:54:00;;;;;;;3.50;2.92;;;;;;;13.12;57.91;100126.63;10374401;28;20054;-69
2021/09/19 16:59:01;;;;;;;3.22;2.78;;;;;;;13.23;58.19;100142.03;10375015;28;20491;-69
2021/09/19 17:04:03;;;;;;;2.72;2.53;;;;;;;13.12;58.91;100145.09;10374678;28;20061;-69
2021/09/19 17:09:05;;;;;;;2.75;2.53;;;;;;;12.92;59.47;100145.88;10373953;28;20559;-69
2021/09/19 17:14:06;;;;;;;3.47;3.17;;;;;;;12.92;59.06;100145.03;10375437;28;20046;-68
2021/09/19 17:19:09;;;;;;;4.20;3.45;;;;;;;12.78;60.45;100151.69;10374739;28;20053;-70
2021/09/19 17:24:10;;;;;;;3.28;2.97;;;;;;;12.72;61.23;100145.81;10375362;28;20530;-69
2021/09/19 17:29:12;;;;;;;5.00;4.10;;;;;;;12.80;60.88;100144.59;10375096;28;20053;-69
2021/09/19 17:34:14;;;;;;;5.88;4.60;;;;;;;12.82;61.62;100163.00;10374811;28;20049;-68
2021/09/19 17:39:15;;;;;;;4.50;4.07;;;;;;;12.65;62.63;100162.78;10374355;28;20042;-68
2021/09/19 17:44:17;;;;;;;3.30;3.00;;;;;;;12.67;62.41;100171.50;10373510;28;20057;-68
2021/09/19 17:49:18;;;;;;;5.13;3.30;;;;;;;12.62;63.05;100169.06;10375045;28;20120;-69
2021/09/19 17:54:20;;;;;;;5.57;5.07;;;;;;;12.57;63.10;100163.94;10373666;28;20041;-69
2021/09/19 17:59:22;;;;;;;4.88;4.47;;;;;;;12.56;63.05;100162.22;10374263;28;20046;-69
2021/09/19 18:04:23;;;;;;;5.28;4.78;;;;;;;12.43;63.99;100184.69;10382723;28;20050;-69
2021/09/19 18:09:25;;;;;;;4.22;3.85;;;;;;;12.41;64.30;100183.88;10388213;28;20071;-69
2021/09/19 18:14:29;;;;;;;5.40;4.47;;;;;;;12.63;64.32;100192.72;10388973;28;20050;-69
2021/09/19 18:19:31;;;;;;;6.57;5.75;;;;;;;12.48;63.85;100189.78;10387641;28;20111;-69
2021/09/19 18:24:32;;;;;;;7.55;6.65;;;;;;;12.51;64.69;100193.16;10387413;28;20045;-70
2021/09/19 18:29:34;;;;;;;7.13;5.97;;;;;;;12.46;65.40;100197.75;10387607;28;20049;-69
2021/09/19 18:34:36;;;;;;;4.45;4.05;;;;;;;12.31;65.83;100204.47;10386906;28;20042;-69
2021/09/19 18:39:37;;;;;;;5.53;4.15;;;;;;;12.33;65.98;100204.41;10388694;28;20120;-70
2021/09/19 18:44:39;;;;;;;3.95;3.60;;;;;;;12.38;65.16;100194.53;10387969;28;20096;-69
2021/09/19 18:49:41;;;;;;;3.80;3.50;;;;;;;12.29;65.97;100200.16;10387938;28;20112;-69
2021/09/19 18:54:43;;;;;;;4.53;4.13;;;;;;;12.44;65.73;100209.25;10388139;28;20438;-68
2021/09/19 18:59:45;;;;;;;4.90;3.72;;;;;;;12.26;68.06;100214.31;10386781;28;20046;-68
2021/09/19 19:04:47;;;;;;;4.07;3.78;;;;;;;12.35;66.72;100213.97;10388246;28;20050;-69
2021/09/19 19:09:48;;;;;;;4.00;3.60;;;;;;;12.48;66.44;100206.47;10404662;22;20046;-75
2021/09/19 19:14:53;;;;;;;5.00;4.60;;;;;;;12.43;67.53;100211.03;10386714;28;20052;-73
2021/09/19 19:19:55;;;;;;;4.75;4.35;;;;;;;12.33;68.28;100214.94;10366081;28;20052;-74
2021/09/19 19:24:59;;;;;;;4.82;4.38;;;;;;;12.29;67.58;100213.31;10367129;28;20053;-75
2021/09/19 19:30:01;;;;;;;4.85;4.30;;;;;;;12.36;67.38;100217.47;10366318;28;20101;-73
2021/09/19 19:35:03;;;;;;;4.25;3.90;;;;;;;12.21;68.89;100232.03;10383241;28;20057;-75
2021/09/19 19:40:05;;;;;;;4.68;4.28;;;;;;;12.45;66.80;100225.03;10365340;28;20056;-75
2021/09/19 19:45:08;;;;;;;4.95;4.55;;;;;;;12.45;66.30;100227.69;10383779;28;20049;-75
2021/09/19 19:50:12;;;;;;;4.50;4.10;;;;;;;12.28;67.83;100225.66;10363320;28;20058;-74
2021/09/19 19:55:14;;;;;;;3.70;3.45;;;;;;;12.16;69.51;100239.25;10382296;28;20054;-74
2021/09/19 20:00:16;;;;;;;4.38;4.07;;;;;;;11.97;71.57;100241.66;10364048;28;20034;-74
2021/09/19 20:05:18;;;;;;;5.00;4.35;;;;;;;12.26;70.75;100239.78;10364421;28;20100;-74
2021/09/19 20:10:20;;;;;;;5.20;4.63;;;;;;;12.00;73.42;100238.09;10380802;28;20042;-74
2021/09/19 20:15:22;;;;;;;7.53;6.93;;;;;;;12.06;74.25;100238.72;10364643;28;20437;-74
2021/09/19 20:20:24;;;;;;;8.63;7.93;;;;;;;12.42;70.15;100233.06;10363975;28;20052;-74
2021/09/19 20:25:27;;;;;;;7.75;7.07;;;;;;;12.31;70.23;100238.72;10361674;28;20077;-75
2021/09/19 20:30:29;;;;;;;7.00;6.50;;;;;;;11.99;71.51;100237.19;10378606;28;20038;-74
2021/09/19 20:35:31;;;;;;;6.70;6.18;;;;;;;12.20;70.96;100242.66;10362848;28;20474;-74
2021/09/19 20:40:33;;;;;;;6.15;5.65;;;;;;;12.07;72.17;100250.13;10362046;28;20056;-74
2021/09/19 20:45:35;;;;;;;7.00;6.50;;;;;;;11.88;73.88;100243.75;10361475;28;20046;-73
2021/09/19 20:50:37;;;;;;;7.15;6.40;;;;;;;11.70;74.04;100246.06;10378225;28;20108;-74
2021/09/19 20:55:38;;;;;;;7.57;6.95;;;;;;;11.58;74.87;100252.56;10360227;28;20049;-76
2021/09/19 21:00:40;;;;;;;6.85;6.35;;;;;;;11.57;74.92;100253.50;10377689;28;20442;-74
2021/09/19 21:05:41;;;;;;;7.68;6.97;;;;;;;11.54;75.54;100247.47;10377740;28;20061;-75
2021/09/19 21:10:43;;;;;;;6.30;5.80;;;;;;;11.52;76.40;100244.88;10377244;28;20046;-74
2021/09/19 21:15:45;;;;;;;6.35;5.80;;;;;;;11.62;75.93;100242.81;10378466;28;20056;-74
2021/09/19 21:20:47;;;;;;;5.80;5.20;;;;;;;12.12;73.59;100238.50;10377157;28;20454;-73
2021/09/19 21:25:49;;;;;;;5.72;5.32;;;;;;;11.90;73.65;100242.78;10377949;28;20403;-73
2021/09/19 21:30:51;;;;;;;5.80;5.30;;;;;;;11.61;75.97;100239.31;10359967;28;20388;-73
2021/09/19 21:35:53;;;;;;;6.00;5.50;;;;;;;11.55;76.14;100244.81;10359174;28;20112;-73
2021/09/19 21:40:55;;;;;;;6.43;5.93;;;;;;;11.46;76.27;100247.69;10359216;28;20052;-73
2021/09/19 21:45:57;;;;;;;6.60;6.10;;;;;;;11.59;75.84;100245.53;10379053;28;20072;-73
2021/09/19 21:50:59;;;;;;;6.10;5.53;;;;;;;11.94;73.71;100244.41;10379508;28;20073;-74
2021/09/19 21:56:01;;;;;;;6.40;5.90;;;;;;;11.59;76.33;100248.16;10360901;28;20046;-74
2021/09/19 22:01:03;;;;;;;7.28;6.57;;;;;;;11.63;77.36;100252.44;10360962;28;20160;-74
2021/09/19 22:06:05;;;;;;;7.93;7.32;;;;;;;11.54;75.56;100245.69;10379160;28;20073;-74
2021/09/19 22:11:16;;;;;;;7.78;6.05;;;;;;;11.61;75.68;100251.63;10360680;28;20057;-74
2021/09/19 22:16:18;;;;;;;6.75;6.18;;;;;;;11.81;74.29;100250.97;10344915;28;20069;-74
2021/09/19 22:21:20;;;;;;;6.65;6.15;;;;;;;11.90;74.31;100257.72;10359963;28;20057;-73
2021/09/19 22:26:22;;;;;;;6.60;6.10;;;;;;;11.74;75.27;100262.63;10376414;28;20042;-73
2021/09/19 22:31:24;;;;;;;6.53;6.00;;;;;;;11.53;77.77;100257.13;10377700;28;20492;-73
2021/09/19 22:36:26;;;;;;;6.60;6.10;;;;;;;11.61;75.96;100257.75;10376676;28;20046;-72
2021/09/19 22:41:28;;;;;;;6.85;6.28;;;;;;;11.58;76.55;100252.56;10376838;28;20381;-73
2021/09/19 22:46:29;;;;;;;5.97;5.47;;;;;;;11.83;75.45;100249.19;10359139;28;20496;-73
2021/09/19 22:51:31;;;;;;;6.40;5.90;;;;;;;11.57;78.58;100245.59;10381784;28;20414;-73
2021/09/19 22:56:33;;;;;;;5.47;5.03;;;;;;;11.45;79.04;100242.50;10366538;28;20042;-73
2021/09/19 23:01:35;;;;;;;5.88;5.30;;;;;;;11.83;75.52;100243.91;10366470;28;20133;-73
2021/09/19 23:06:42;;;;;;;5.43;5.05;;;;;;;11.51;78.49;100250.19;10385094;28;20446;-74
2021/09/19 23:11:44;;;;;;;6.28;5.72;;;;;;;11.60;77.59;100253.41;10383646;28;20415;-73